Terminal Aerodrome Forecast
Issued by NWS

Home | Current Version | Previous Version | Text Only | Print | Product List | Glossary On
Versions: 1 2 3 4 5 6 7 8 9 10 11 12
969
FTUS45 KTFX 231132
TAFHVR
TAF
KHVR 231132Z 2312/2412 23009KT P6SM SCT200
     FM231800 29015G23KT P6SM FEW150
     FM240200 26009KT P6SM FEW200=

USA.gov is the U.S. government's official web portal to all federal, state and local government web resources and services.